sensor_id;sensor_type;location;lat;lon;timestamp;P1;durP1;ratioP1;P2;durP2;ratioP2
31438;SDS011;18062;48.872;9.220;2024-03-08T00:02:10;14.20;;;7.90;;
31438;SDS011;18062;48.872;9.220;2024-03-08T00:04:36;13.73;;;7.57;;
31438;SDS011;18062;48.872;9.220;2024-03-08T00:07:02;11.10;;;6.97;;
31438;SDS011;18062;48.872;9.220;2024-03-08T00:09:28;15.50;;;7.70;;
31438;SDS011;18062;48.872;9.220;2024-03-08T00:11:55;12.73;;;7.47;;
31438;SDS011;18062;48.872;9.220;2024-03-08T00:14:24;13.73;;;7.53;;
31438;SDS011;18062;48.872;9.220;2024-03-08T00:16:50;14.83;;;7.70;;
31438;SDS011;18062;48.872;9.220;2024-03-08T00:19:17;14.83;;;7.17;;
31438;SDS011;18062;48.872;9.220;2024-03-08T00:21:44;13.33;;;6.93;;
31438;SDS011;18062;48.872;9.220;2024-03-08T00:24:10;11.53;;;6.97;;
31438;SDS011;18062;48.872;9.220;2024-03-08T00:26:37;16.97;;;8.13;;
31438;SDS011;18062;48.872;9.220;2024-03-08T00:29:03;12.87;;;6.40;;
31438;SDS011;18062;48.872;9.220;2024-03-08T00:31:29;16.83;;;8.40;;
31438;SDS011;18062;48.872;9.220;2024-03-08T00:33:56;17.20;;;7.83;;
31438;SDS011;18062;48.872;9.220;2024-03-08T00:36:22;10.37;;;5.87;;
31438;SDS011;18062;48.872;9.220;2024-03-08T00:38:49;12.50;;;6.67;;
31438;SDS011;18062;48.872;9.220;2024-03-08T00:41:15;13.90;;;7.70;;
31438;SDS011;18062;48.872;9.220;2024-03-08T00:43:42;10.93;;;6.13;;
31438;SDS011;18062;48.872;9.220;2024-03-08T00:46:08;12.90;;;6.93;;
31438;SDS011;18062;48.872;9.220;2024-03-08T00:48:34;13.13;;;7.17;;
31438;SDS011;18062;48.872;9.220;2024-03-08T00:51:01;16.40;;;7.07;;
31438;SDS011;18062;48.872;9.220;2024-03-08T00:53:27;13.50;;;7.43;;
31438;SDS011;18062;48.872;9.220;2024-03-08T00:55:53;12.67;;;7.17;;
31438;SDS011;18062;48.872;9.220;2024-03-08T00:58:20;13.90;;;7.23;;
31438;SDS011;18062;48.872;9.220;2024-03-08T01:00:46;15.20;;;7.43;;
31438;SDS011;18062;48.872;9.220;2024-03-08T01:03:12;16.67;;;8.33;;
31438;SDS011;18062;48.872;9.220;2024-03-08T01:05:38;15.87;;;8.07;;
31438;SDS011;18062;48.872;9.220;2024-03-08T01:08:04;14.27;;;7.57;;
31438;SDS011;18062;48.872;9.220;2024-03-08T01:10:30;15.20;;;6.90;;
31438;SDS011;18062;48.872;9.220;2024-03-08T01:12:56;15.00;;;7.63;;
31438;SDS011;18062;48.872;9.220;2024-03-08T01:15:24;12.53;;;7.00;;
31438;SDS011;18062;48.872;9.220;2024-03-08T01:17:50;13.50;;;6.83;;
31438;SDS011;18062;48.872;9.220;2024-03-08T01:20:16;15.20;;;7.50;;
31438;SDS011;18062;48.872;9.220;2024-03-08T01:22:42;12.73;;;6.67;;
31438;SDS011;18062;48.872;9.220;2024-03-08T01:25:08;13.23;;;6.50;;
31438;SDS011;18062;48.872;9.220;2024-03-08T01:27:35;10.50;;;6.63;;
31438;SDS011;18062;48.872;9.220;2024-03-08T01:30:01;10.93;;;7.20;;
31438;SDS011;18062;48.872;9.220;2024-03-08T01:32:28;10.93;;;6.63;;
31438;SDS011;18062;48.872;9.220;2024-03-08T01:34:54;13.03;;;7.07;;
31438;SDS011;18062;48.872;9.220;2024-03-08T01:37:20;12.20;;;7.43;;
31438;SDS011;18062;48.872;9.220;2024-03-08T01:39:46;13.93;;;6.70;;
31438;SDS011;18062;48.872;9.220;2024-03-08T01:42:12;14.53;;;6.70;;
31438;SDS011;18062;48.872;9.220;2024-03-08T01:44:40;12.43;;;6.60;;
31438;SDS011;18062;48.872;9.220;2024-03-08T01:47:06;13.50;;;6.83;;
31438;SDS011;18062;48.872;9.220;2024-03-08T01:49:32;9.87;;;5.87;;
31438;SDS011;18062;48.872;9.220;2024-03-08T01:51:58;11.23;;;6.70;;
31438;SDS011;18062;48.872;9.220;2024-03-08T01:54:24;11.63;;;6.37;;
31438;SDS011;18062;48.872;9.220;2024-03-08T01:56:52;13.57;;;6.57;;
31438;SDS011;18062;48.872;9.220;2024-03-08T01:59:18;13.33;;;7.10;;
31438;SDS011;18062;48.872;9.220;2024-03-08T02:01:44;8.67;;;5.20;;
31438;SDS011;18062;48.872;9.220;2024-03-08T02:04:10;9.50;;;5.90;;
31438;SDS011;18062;48.872;9.220;2024-03-08T02:06:36;10.90;;;6.47;;
31438;SDS011;18062;48.872;9.220;2024-03-08T02:09:03;11.93;;;7.07;;
31438;SDS011;18062;48.872;9.220;2024-03-08T02:11:35;12.80;;;6.57;;
31438;SDS011;18062;48.872;9.220;2024-03-08T02:14:02;14.83;;;7.23;;
31438;SDS011;18062;48.872;9.220;2024-03-08T02:16:29;11.50;;;5.87;;
31438;SDS011;18062;48.872;9.220;2024-03-08T02:18:55;14.40;;;7.10;;
31438;SDS011;18062;48.872;9.220;2024-03-08T02:21:21;11.43;;;6.37;;
31438;SDS011;18062;48.872;9.220;2024-03-08T02:23:47;11.33;;;6.33;;
31438;SDS011;18062;48.872;9.220;2024-03-08T02:26:13;11.23;;;6.53;;
31438;SDS011;18062;48.872;9.220;2024-03-08T02:28:39;11.33;;;6.33;;
31438;SDS011;18062;48.872;9.220;2024-03-08T02:31:08;11.77;;;6.13;;
31438;SDS011;18062;48.872;9.220;2024-03-08T02:33:34;10.10;;;6.13;;
31438;SDS011;18062;48.872;9.220;2024-03-08T02:36:00;13.67;;;6.10;;
31438;SDS011;18062;48.872;9.220;2024-03-08T02:38:26;9.67;;;6.37;;
31438;SDS011;18062;48.872;9.220;2024-03-08T02:40:53;12.67;;;6.90;;
31438;SDS011;18062;48.872;9.220;2024-03-08T02:43:20;11.33;;;6.67;;
31438;SDS011;18062;48.872;9.220;2024-03-08T02:45:49;12.10;;;6.73;;
31438;SDS011;18062;48.872;9.220;2024-03-08T02:48:15;13.87;;;7.30;;
31438;SDS011;18062;48.872;9.220;2024-03-08T02:50:41;13.23;;;5.93;;
31438;SDS011;18062;48.872;9.220;2024-03-08T02:53:09;12.67;;;6.57;;
31438;SDS011;18062;48.872;9.220;2024-03-08T02:55:36;9.53;;;5.47;;
31438;SDS011;18062;48.872;9.220;2024-03-08T02:58:02;10.80;;;5.23;;
31438;SDS011;18062;48.872;9.220;2024-03-08T03:00:29;12.60;;;6.27;;
31438;SDS011;18062;48.872;9.220;2024-03-08T03:02:59;9.63;;;5.83;;
31438;SDS011;18062;48.872;9.220;2024-03-08T03:05:27;10.13;;;5.53;;
31438;SDS011;18062;48.872;9.220;2024-03-08T03:07:54;9.37;;;5.33;;
31438;SDS011;18062;48.872;9.220;2024-03-08T03:10:20;11.83;;;6.23;;
31438;SDS011;18062;48.872;9.220;2024-03-08T03:12:47;9.30;;;5.20;;
31438;SDS011;18062;48.872;9.220;2024-03-08T03:15:13;11.63;;;5.50;;
31438;SDS011;18062;48.872;9.220;2024-03-08T03:17:42;11.53;;;5.47;;
31438;SDS011;18062;48.872;9.220;2024-03-08T03:20:11;9.67;;;5.20;;
31438;SDS011;18062;48.872;9.220;2024-03-08T03:22:47;7.87;;;5.77;;
31438;SDS011;18062;48.872;9.220;2024-03-08T03:25:16;10.13;;;6.27;;
31438;SDS011;18062;48.872;9.220;2024-03-08T03:27:48;9.30;;;5.33;;
31438;SDS011;18062;48.872;9.220;2024-03-08T03:30:14;11.67;;;6.27;;
31438;SDS011;18062;48.872;9.220;2024-03-08T03:32:47;10.27;;;5.03;;
31438;SDS011;18062;48.872;9.220;2024-03-08T03:35:13;9.63;;;5.67;;
31438;SDS011;18062;48.872;9.220;2024-03-08T03:37:40;12.93;;;6.10;;
31438;SDS011;18062;48.872;9.220;2024-03-08T03:40:08;11.50;;;6.00;;
31438;SDS011;18062;48.872;9.220;2024-03-08T03:42:34;8.20;;;5.43;;
31438;SDS011;18062;48.872;9.220;2024-03-08T03:45:00;11.67;;;6.40;;
31438;SDS011;18062;48.872;9.220;2024-03-08T03:47:27;15.50;;;6.33;;
31438;SDS011;18062;48.872;9.220;2024-03-08T03:49:53;10.23;;;5.77;;
31438;SDS011;18062;48.872;9.220;2024-03-08T03:52:20;9.07;;;5.37;;
31438;SDS011;18062;48.872;9.220;2024-03-08T03:54:46;13.90;;;6.73;;
31438;SDS011;18062;48.872;9.220;2024-03-08T03:57:12;10.03;;;6.00;;
31438;SDS011;18062;48.872;9.220;2024-03-08T03:59:38;8.93;;;5.53;;
31438;SDS011;18062;48.872;9.220;2024-03-08T04:02:06;17.73;;;5.87;;
31438;SDS011;18062;48.872;9.220;2024-03-08T04:04:32;9.50;;;4.93;;
31438;SDS011;18062;48.872;9.220;2024-03-08T04:06:58;9.20;;;5.37;;
31438;SDS011;18062;48.872;9.220;2024-03-08T04:09:24;11.67;;;6.87;;
31438;SDS011;18062;48.872;9.220;2024-03-08T04:11:50;7.40;;;4.43;;
31438;SDS011;18062;48.872;9.220;2024-03-08T04:14:18;12.27;;;6.13;;
31438;SDS011;18062;48.872;9.220;2024-03-08T04:16:44;9.27;;;4.80;;
31438;SDS011;18062;48.872;9.220;2024-03-08T04:19:10;8.67;;;4.90;;
31438;SDS011;18062;48.872;9.220;2024-03-08T04:21:36;10.30;;;5.93;;
31438;SDS011;18062;48.872;9.220;2024-03-08T04:24:02;11.17;;;6.00;;
31438;SDS011;18062;48.872;9.220;2024-03-08T04:26:29;10.77;;;5.13;;
31438;SDS011;18062;48.872;9.220;2024-03-08T04:28:55;11.70;;;5.70;;
31438;SDS011;18062;48.872;9.220;2024-03-08T04:31:21;7.97;;;5.60;;
31438;SDS011;18062;48.872;9.220;2024-03-08T04:33:47;12.63;;;6.50;;
31438;SDS011;18062;48.872;9.220;2024-03-08T04:36:13;11.87;;;6.87;;
31438;SDS011;18062;48.872;9.220;2024-03-08T04:38:39;11.03;;;5.93;;
31438;SDS011;18062;48.872;9.220;2024-03-08T04:41:06;9.03;;;4.83;;
31438;SDS011;18062;48.872;9.220;2024-03-08T04:43:32;14.47;;;6.73;;
31438;SDS011;18062;48.872;9.220;2024-03-08T04:45:58;9.17;;;5.20;;
31438;SDS011;18062;48.872;9.220;2024-03-08T04:48:24;12.17;;;6.57;;
31438;SDS011;18062;48.872;9.220;2024-03-08T04:50:52;11.20;;;6.17;;
31438;SDS011;18062;48.872;9.220;2024-03-08T04:53:18;11.43;;;5.77;;
31438;SDS011;18062;48.872;9.220;2024-03-08T04:55:44;8.50;;;4.53;;
31438;SDS011;18062;48.872;9.220;2024-03-08T04:58:10;9.43;;;5.27;;
31438;SDS011;18062;48.872;9.220;2024-03-08T05:00:36;12.17;;;6.60;;
31438;SDS011;18062;48.872;9.220;2024-03-08T05:03:03;11.03;;;5.80;;
31438;SDS011;18062;48.872;9.220;2024-03-08T05:05:29;8.33;;;5.27;;
31438;SDS011;18062;48.872;9.220;2024-03-08T05:07:56;13.17;;;6.23;;
31438;SDS011;18062;48.872;9.220;2024-03-08T05:10:22;8.93;;;5.57;;
31438;SDS011;18062;48.872;9.220;2024-03-08T05:12:48;10.83;;;6.30;;
31438;SDS011;18062;48.872;9.220;2024-03-08T05:15:14;11.33;;;5.87;;
31438;SDS011;18062;48.872;9.220;2024-03-08T05:17:41;11.30;;;6.33;;
31438;SDS011;18062;48.872;9.220;2024-03-08T05:20:07;14.43;;;6.53;;
31438;SDS011;18062;48.872;9.220;2024-03-08T05:22:37;9.90;;;5.90;;
31438;SDS011;18062;48.872;9.220;2024-03-08T05:25:03;9.37;;;5.40;;
31438;SDS011;18062;48.872;9.220;2024-03-08T05:27:29;9.10;;;5.53;;
31438;SDS011;18062;48.872;9.220;2024-03-08T05:29:55;16.40;;;5.90;;
31438;SDS011;18062;48.872;9.220;2024-03-08T05:32:21;10.90;;;6.00;;
31438;SDS011;18062;48.872;9.220;2024-03-08T05:34:47;7.93;;;5.37;;
31438;SDS011;18062;48.872;9.220;2024-03-08T05:37:13;9.80;;;5.73;;
31438;SDS011;18062;48.872;9.220;2024-03-08T05:39:39;11.20;;;6.63;;
31438;SDS011;18062;48.872;9.220;2024-03-08T05:42:06;11.13;;;5.80;;
31438;SDS011;18062;48.872;9.220;2024-03-08T05:44:33;13.67;;;5.53;;
31438;SDS011;18062;48.872;9.220;2024-03-08T05:46:59;10.17;;;6.10;;
31438;SDS011;18062;48.872;9.220;2024-03-08T05:49:25;10.93;;;6.37;;
31438;SDS011;18062;48.872;9.220;2024-03-08T05:51:51;13.13;;;6.30;;
31438;SDS011;18062;48.872;9.220;2024-03-08T05:54:19;8.30;;;5.57;;
31438;SDS011;18062;48.872;9.220;2024-03-08T05:56:47;9.13;;;5.73;;
31438;SDS011;18062;48.872;9.220;2024-03-08T05:59:18;9.07;;;5.53;;
31438;SDS011;18062;48.872;9.220;2024-03-08T06:01:44;11.33;;;5.77;;
31438;SDS011;18062;48.872;9.220;2024-03-08T06:04:11;11.07;;;6.13;;
31438;SDS011;18062;48.872;9.220;2024-03-08T06:06:37;13.47;;;6.80;;
31438;SDS011;18062;48.872;9.220;2024-03-08T06:09:03;11.97;;;5.77;;
31438;SDS011;18062;48.872;9.220;2024-03-08T06:11:36;10.60;;;5.77;;
31438;SDS011;18062;48.872;9.220;2024-03-08T06:14:03;7.60;;;5.07;;
31438;SDS011;18062;48.872;9.220;2024-03-08T06:16:29;12.77;;;7.10;;
31438;SDS011;18062;48.872;9.220;2024-03-08T06:18:57;11.27;;;6.23;;
31438;SDS011;18062;48.872;9.220;2024-03-08T06:21:33;14.63;;;7.03;;
31438;SDS011;18062;48.872;9.220;2024-03-08T06:23:59;8.63;;;5.70;;
31438;SDS011;18062;48.872;9.220;2024-03-08T06:26:25;9.77;;;5.43;;
31438;SDS011;18062;48.872;9.220;2024-03-08T06:28:53;12.53;;;6.50;;
31438;SDS011;18062;48.872;9.220;2024-03-08T06:31:19;12.13;;;7.27;;
31438;SDS011;18062;48.872;9.220;2024-03-08T06:33:45;13.03;;;7.30;;
31438;SDS011;18062;48.872;9.220;2024-03-08T06:36:11;12.03;;;6.80;;
31438;SDS011;18062;48.872;9.220;2024-03-08T06:38:38;11.27;;;6.50;;
31438;SDS011;18062;48.872;9.220;2024-03-08T06:41:08;12.20;;;7.03;;
31438;SDS011;18062;48.872;9.220;2024-03-08T06:43:40;18.27;;;8.93;;
31438;SDS011;18062;48.872;9.220;2024-03-08T06:46:06;14.87;;;8.77;;
31438;SDS011;18062;48.872;9.220;2024-03-08T06:48:32;17.37;;;8.20;;
31438;SDS011;18062;48.872;9.220;2024-03-08T06:50:58;15.47;;;7.37;;
31438;SDS011;18062;48.872;9.220;2024-03-08T06:53:24;15.03;;;7.90;;
31438;SDS011;18062;48.872;9.220;2024-03-08T06:55:50;15.43;;;8.77;;
31438;SDS011;18062;48.872;9.220;2024-03-08T06:58:16;21.10;;;10.47;;
31438;SDS011;18062;48.872;9.220;2024-03-08T07:00:42;27.17;;;13.90;;
31438;SDS011;18062;48.872;9.220;2024-03-08T07:03:09;18.17;;;10.53;;
31438;SDS011;18062;48.872;9.220;2024-03-08T07:05:37;21.53;;;10.63;;
31438;SDS011;18062;48.872;9.220;2024-03-08T07:08:05;18.07;;;9.43;;
31438;SDS011;18062;48.872;9.220;2024-03-08T07:10:31;20.63;;;9.93;;
31438;SDS011;18062;48.872;9.220;2024-03-08T07:12:57;20.50;;;9.40;;
31438;SDS011;18062;48.872;9.220;2024-03-08T07:15:23;14.70;;;9.87;;
31438;SDS011;18062;48.872;9.220;2024-03-08T07:17:50;16.87;;;9.83;;
31438;SDS011;18062;48.872;9.220;2024-03-08T07:20:17;18.20;;;9.93;;
31438;SDS011;18062;48.872;9.220;2024-03-08T07:22:44;13.13;;;8.37;;
31438;SDS011;18062;48.872;9.220;2024-03-08T07:25:15;16.23;;;8.83;;
31438;SDS011;18062;48.872;9.220;2024-03-08T07:27:49;17.53;;;9.47;;
31438;SDS011;18062;48.872;9.220;2024-03-08T07:30:16;17.20;;;9.60;;
31438;SDS011;18062;48.872;9.220;2024-03-08T07:33:02;15.47;;;9.03;;
31438;SDS011;18062;48.872;9.220;2024-03-08T07:35:29;15.03;;;8.57;;
31438;SDS011;18062;48.872;9.220;2024-03-08T07:37:56;17.47;;;9.40;;
31438;SDS011;18062;48.872;9.220;2024-03-08T07:40:24;15.77;;;9.20;;
31438;SDS011;18062;48.872;9.220;2024-03-08T07:42:50;14.67;;;9.23;;
31438;SDS011;18062;48.872;9.220;2024-03-08T07:45:17;14.73;;;8.67;;
31438;SDS011;18062;48.872;9.220;2024-03-08T07:47:43;17.07;;;9.17;;
31438;SDS011;18062;48.872;9.220;2024-03-08T07:50:09;14.00;;;8.47;;
31438;SDS011;18062;48.872;9.220;2024-03-08T07:52:35;13.03;;;8.73;;
31438;SDS011;18062;48.872;9.220;2024-03-08T07:55:01;15.93;;;8.80;;
31438;SDS011;18062;48.872;9.220;2024-03-08T07:57:31;14.97;;;9.10;;
31438;SDS011;18062;48.872;9.220;2024-03-08T07:59:57;15.10;;;9.17;;
31438;SDS011;18062;48.872;9.220;2024-03-08T08:02:23;16.40;;;8.57;;
31438;SDS011;18062;48.872;9.220;2024-03-08T08:04:50;14.97;;;9.03;;
31438;SDS011;18062;48.872;9.220;2024-03-08T08:07:16;14.73;;;8.50;;
31438;SDS011;18062;48.872;9.220;2024-03-08T08:09:42;16.63;;;9.37;;
31438;SDS011;18062;48.872;9.220;2024-03-08T08:12:08;18.60;;;9.20;;
31438;SDS011;18062;48.872;9.220;2024-03-08T08:14:37;15.27;;;8.63;;
31438;SDS011;18062;48.872;9.220;2024-03-08T08:17:04;12.97;;;8.20;;
31438;SDS011;18062;48.872;9.220;2024-03-08T08:19:30;18.07;;;8.93;;
31438;SDS011;18062;48.872;9.220;2024-03-08T08:21:57;16.90;;;9.57;;
31438;SDS011;18062;48.872;9.220;2024-03-08T08:24:23;16.10;;;8.97;;
31438;SDS011;18062;48.872;9.220;2024-03-08T08:26:49;16.67;;;9.53;;
31438;SDS011;18062;48.872;9.220;2024-03-08T08:29:15;15.93;;;8.63;;
31438;SDS011;18062;48.872;9.220;2024-03-08T08:31:41;13.33;;;8.70;;
31438;SDS011;18062;48.872;9.220;2024-03-08T08:34:09;24.53;;;13.10;;
31438;SDS011;18062;48.872;9.220;2024-03-08T08:36:37;15.63;;;8.80;;
31438;SDS011;18062;48.872;9.220;2024-03-08T08:39:03;14.00;;;9.13;;
31438;SDS011;18062;48.872;9.220;2024-03-08T08:41:30;14.60;;;8.87;;
31438;SDS011;18062;48.872;9.220;2024-03-08T08:43:56;13.10;;;7.80;;
31438;SDS011;18062;48.872;9.220;2024-03-08T08:46:23;14.17;;;8.13;;
31438;SDS011;18062;48.872;9.220;2024-03-08T08:48:49;15.83;;;9.07;;
31438;SDS011;18062;48.872;9.220;2024-03-08T08:51:15;16.47;;;9.33;;
31438;SDS011;18062;48.872;9.220;2024-03-08T08:53:41;13.77;;;8.63;;
31438;SDS011;18062;48.872;9.220;2024-03-08T08:56:12;14.40;;;8.33;;
31438;SDS011;18062;48.872;9.220;2024-03-08T08:58:44;14.23;;;8.50;;
31438;SDS011;18062;48.872;9.220;2024-03-08T09:01:10;13.03;;;7.90;;
31438;SDS011;18062;48.872;9.220;2024-03-08T09:03:50;14.20;;;9.03;;
31438;SDS011;18062;48.872;9.220;2024-03-08T09:06:17;14.63;;;8.63;;
31438;SDS011;18062;48.872;9.220;2024-03-08T09:08:43;13.97;;;8.40;;
31438;SDS011;18062;48.872;9.220;2024-03-08T09:11:09;14.67;;;8.70;;
31438;SDS011;18062;48.872;9.220;2024-03-08T09:13:35;16.93;;;9.40;;
31438;SDS011;18062;48.872;9.220;2024-03-08T09:16:02;15.30;;;8.83;;
31438;SDS011;18062;48.872;9.220;2024-03-08T09:18:30;13.63;;;8.40;;
31438;SDS011;18062;48.872;9.220;2024-03-08T09:20:57;13.00;;;7.83;;
31438;SDS011;18062;48.872;9.220;2024-03-08T09:23:23;16.23;;;8.67;;
31438;SDS011;18062;48.872;9.220;2024-03-08T09:25:50;13.17;;;8.70;;
31438;SDS011;18062;48.872;9.220;2024-03-08T09:28:16;15.83;;;8.73;;
31438;SDS011;18062;48.872;9.220;2024-03-08T09:30:42;14.10;;;8.63;;
31438;SDS011;18062;48.872;9.220;2024-03-08T09:33:09;13.13;;;8.20;;
31438;SDS011;18062;48.872;9.220;2024-03-08T09:35:36;13.20;;;8.53;;
31438;SDS011;18062;48.872;9.220;2024-03-08T09:38:02;14.97;;;9.27;;
31438;SDS011;18062;48.872;9.220;2024-03-08T09:40:30;14.43;;;8.53;;
31438;SDS011;18062;48.872;9.220;2024-03-08T09:42:56;15.10;;;8.90;;
31438;SDS011;18062;48.872;9.220;2024-03-08T09:45:22;12.43;;;7.90;;
31438;SDS011;18062;48.872;9.220;2024-03-08T09:47:50;16.17;;;8.67;;
31438;SDS011;18062;48.872;9.220;2024-03-08T09:50:16;14.37;;;8.93;;
31438;SDS011;18062;48.872;9.220;2024-03-08T09:52:43;13.13;;;8.10;;
31438;SDS011;18062;48.872;9.220;2024-03-08T09:55:12;19.13;;;8.13;;
31438;SDS011;18062;48.872;9.220;2024-03-08T09:57:38;12.57;;;7.83;;
31438;SDS011;18062;48.872;9.220;2024-03-08T10:00:05;12.87;;;8.03;;
31438;SDS011;18062;48.872;9.220;2024-03-08T10:02:48;12.20;;;7.63;;
31438;SDS011;18062;48.872;9.220;2024-03-08T10:05:18;14.10;;;8.17;;
31438;SDS011;18062;48.872;9.220;2024-03-08T10:07:47;13.17;;;7.50;;
31438;SDS011;18062;48.872;9.220;2024-03-08T10:10:13;12.67;;;7.83;;
31438;SDS011;18062;48.872;9.220;2024-03-08T10:12:39;14.20;;;8.33;;
31438;SDS011;18062;48.872;9.220;2024-03-08T10:15:06;12.87;;;8.07;;
31438;SDS011;18062;48.872;9.220;2024-03-08T10:17:34;12.53;;;7.90;;
31438;SDS011;18062;48.872;9.220;2024-03-08T10:20:00;13.67;;;7.80;;
31438;SDS011;18062;48.872;9.220;2024-03-08T10:22:28;15.13;;;9.17;;
31438;SDS011;18062;48.872;9.220;2024-03-08T10:24:56;15.43;;;9.23;;
31438;SDS011;18062;48.872;9.220;2024-03-08T10:27:23;16.27;;;8.93;;
31438;SDS011;18062;48.872;9.220;2024-03-08T10:29:51;16.33;;;8.83;;
31438;SDS011;18062;48.872;9.220;2024-03-08T10:32:17;14.27;;;8.50;;
31438;SDS011;18062;48.872;9.220;2024-03-08T10:34:43;14.90;;;8.77;;
31438;SDS011;18062;48.872;9.220;2024-03-08T10:37:13;15.20;;;8.03;;
31438;SDS011;18062;48.872;9.220;2024-03-08T10:39:43;13.53;;;8.40;;
31438;SDS011;18062;48.872;9.220;2024-03-08T10:42:13;12.57;;;8.53;;
31438;SDS011;18062;48.872;9.220;2024-03-08T10:47:40;17.03;;;8.53;;
31438;SDS011;18062;48.872;9.220;2024-03-08T10:52:33;14.90;;;8.27;;
31438;SDS011;18062;48.872;9.220;2024-03-08T10:55:00;15.47;;;9.03;;
31438;SDS011;18062;48.872;9.220;2024-03-08T10:57:27;18.13;;;8.50;;
31438;SDS011;18062;48.872;9.220;2024-03-08T10:59:53;14.80;;;8.83;;
31438;SDS011;18062;48.872;9.220;2024-03-08T11:02:20;11.83;;;7.73;;
31438;SDS011;18062;48.872;9.220;2024-03-08T11:04:47;17.97;;;9.07;;
31438;SDS011;18062;48.872;9.220;2024-03-08T11:07:14;13.60;;;8.53;;
31438;SDS011;18062;48.872;9.220;2024-03-08T11:09:43;13.70;;;8.93;;
31438;SDS011;18062;48.872;9.220;2024-03-08T11:12:26;14.00;;;8.47;;
31438;SDS011;18062;48.872;9.220;2024-03-08T11:15:00;15.40;;;9.20;;
31438;SDS011;18062;48.872;9.220;2024-03-08T11:19:59;22.67;;;12.20;;
31438;SDS011;18062;48.872;9.220;2024-03-08T11:22:31;16.10;;;9.23;;
31438;SDS011;18062;48.872;9.220;2024-03-08T11:25:04;14.43;;;8.60;;
31438;SDS011;18062;48.872;9.220;2024-03-08T11:27:34;18.73;;;10.23;;
31438;SDS011;18062;48.872;9.220;2024-03-08T11:32:37;12.27;;;8.13;;
31438;SDS011;18062;48.872;9.220;2024-03-08T11:35:10;12.53;;;8.00;;
31438;SDS011;18062;48.872;9.220;2024-03-08T11:37:44;13.47;;;9.47;;
31438;SDS011;18062;48.872;9.220;2024-03-08T11:40:12;13.50;;;9.20;;
31438;SDS011;18062;48.872;9.220;2024-03-08T11:42:47;11.63;;;8.60;;
31438;SDS011;18062;48.872;9.220;2024-03-08T11:45:14;13.20;;;9.20;;
31438;SDS011;18062;48.872;9.220;2024-03-08T11:47:42;13.10;;;9.63;;
31438;SDS011;18062;48.872;9.220;2024-03-08T11:50:11;15.43;;;9.87;;
31438;SDS011;18062;48.872;9.220;2024-03-08T11:52:37;10.50;;;7.67;;
31438;SDS011;18062;48.872;9.220;2024-03-08T11:55:03;13.73;;;9.77;;
31438;SDS011;18062;48.872;9.220;2024-03-08T11:57:30;11.93;;;9.43;;
31438;SDS011;18062;48.872;9.220;2024-03-08T11:59:57;16.27;;;9.88;;
31438;SDS011;18062;48.872;9.220;2024-03-08T12:02:23;11.95;;;9.35;;
31438;SDS011;18062;48.872;9.220;2024-03-08T12:04:56;10.30;;;8.15;;
31438;SDS011;18062;48.872;9.220;2024-03-08T12:07:25;15.30;;;10.02;;
31438;SDS011;18062;48.872;9.220;2024-03-08T12:10:25;12.38;;;9.38;;
31438;SDS011;18062;48.872;9.220;2024-03-08T12:12:46;11.93;;;9.88;;
31438;SDS011;18062;48.872;9.220;2024-03-08T12:15:13;12.82;;;9.13;;
31438;SDS011;18062;48.872;9.220;2024-03-08T12:17:39;15.27;;;10.20;;
31438;SDS011;18062;48.872;9.220;2024-03-08T12:20:12;11.23;;;8.43;;
31438;SDS011;18062;48.872;9.220;2024-03-08T12:22:42;12.13;;;9.68;;
31438;SDS011;18062;48.872;9.220;2024-03-08T12:25:08;12.38;;;10.07;;
31438;SDS011;18062;48.872;9.220;2024-03-08T12:27:36;12.85;;;9.48;;
31438;SDS011;18062;48.872;9.220;2024-03-08T12:30:19;14.07;;;10.70;;
31438;SDS011;18062;48.872;9.220;2024-03-08T12:32:55;12.70;;;9.85;;
31438;SDS011;18062;48.872;9.220;2024-03-08T12:35:30;11.68;;;9.70;;
31438;SDS011;18062;48.872;9.220;2024-03-08T12:37:59;11.40;;;9.32;;
31438;SDS011;18062;48.872;9.220;2024-03-08T12:40:29;13.13;;;9.68;;
31438;SDS011;18062;48.872;9.220;2024-03-08T12:42:56;14.80;;;10.88;;
31438;SDS011;18062;48.872;9.220;2024-03-08T12:45:23;12.63;;;10.45;;
31438;SDS011;18062;48.872;9.220;2024-03-08T12:47:52;13.57;;;10.60;;
31438;SDS011;18062;48.872;9.220;2024-03-08T12:50:19;13.65;;;10.63;;
31438;SDS011;18062;48.872;9.220;2024-03-08T12:52:45;12.70;;;9.57;;
31438;SDS011;18062;48.872;9.220;2024-03-08T12:55:11;11.25;;;9.23;;
31438;SDS011;18062;48.872;9.220;2024-03-08T12:57:37;12.02;;;10.00;;
31438;SDS011;18062;48.872;9.220;2024-03-08T13:00:04;13.05;;;10.75;;
31438;SDS011;18062;48.872;9.220;2024-03-08T13:02:30;11.88;;;9.27;;
31438;SDS011;18062;48.872;9.220;2024-03-08T13:04:58;12.20;;;9.95;;
31438;SDS011;18062;48.872;9.220;2024-03-08T13:07:24;13.38;;;10.02;;
31438;SDS011;18062;48.872;9.220;2024-03-08T13:09:53;13.35;;;10.30;;
31438;SDS011;18062;48.872;9.220;2024-03-08T13:12:20;12.05;;;8.95;;
31438;SDS011;18062;48.872;9.220;2024-03-08T13:14:46;12.23;;;10.80;;
31438;SDS011;18062;48.872;9.220;2024-03-08T13:17:13;11.77;;;9.38;;
31438;SDS011;18062;48.872;9.220;2024-03-08T13:19:39;11.98;;;9.75;;
31438;SDS011;18062;48.872;9.220;2024-03-08T13:22:06;12.13;;;9.60;;
31438;SDS011;18062;48.872;9.220;2024-03-08T13:24:32;14.27;;;9.93;;
31438;SDS011;18062;48.872;9.220;2024-03-08T13:27:01;15.25;;;10.35;;
31438;SDS011;18062;48.872;9.220;2024-03-08T13:29:27;12.32;;;9.57;;
31438;SDS011;18062;48.872;9.220;2024-03-08T13:31:55;12.43;;;10.05;;
31438;SDS011;18062;48.872;9.220;2024-03-08T13:34:25;12.13;;;9.13;;
31438;SDS011;18062;48.872;9.220;2024-03-08T13:36:54;16.15;;;10.25;;
31438;SDS011;18062;48.872;9.220;2024-03-08T13:39:25;13.27;;;9.95;;
31438;SDS011;18062;48.872;9.220;2024-03-08T13:41:51;12.20;;;10.23;;
31438;SDS011;18062;48.872;9.220;2024-03-08T13:44:17;13.75;;;10.20;;
31438;SDS011;18062;48.872;9.220;2024-03-08T13:46:43;14.27;;;10.70;;
31438;SDS011;18062;48.872;9.220;2024-03-08T13:49:09;11.57;;;9.98;;
31438;SDS011;18062;48.872;9.220;2024-03-08T13:51:35;13.90;;;10.50;;
31438;SDS011;18062;48.872;9.220;2024-03-08T13:54:02;11.38;;;9.73;;
31438;SDS011;18062;48.872;9.220;2024-03-08T13:56:31;14.55;;;11.05;;
31438;SDS011;18062;48.872;9.220;2024-03-08T13:58:57;9.05;;;7.88;;
31438;SDS011;18062;48.872;9.220;2024-03-08T14:01:24;10.52;;;9.25;;
31438;SDS011;18062;48.872;9.220;2024-03-08T14:03:50;10.35;;;9.20;;
31438;SDS011;18062;48.872;9.220;2024-03-08T14:06:16;11.70;;;9.60;;
31438;SDS011;18062;48.872;9.220;2024-03-08T14:08:43;11.80;;;9.10;;
31438;SDS011;18062;48.872;9.220;2024-03-08T14:11:09;13.20;;;10.40;;
31438;SDS011;18062;48.872;9.220;2024-03-08T14:13:44;12.60;;;10.40;;
31438;SDS011;18062;48.872;9.220;2024-03-08T14:16:13;13.48;;;9.55;;
31438;SDS011;18062;48.872;9.220;2024-03-08T14:18:40;11.77;;;9.60;;
31438;SDS011;18062;48.872;9.220;2024-03-08T14:21:07;11.07;;;9.23;;
31438;SDS011;18062;48.872;9.220;2024-03-08T14:23:33;10.30;;;8.45;;
31438;SDS011;18062;48.872;9.220;2024-03-08T14:25:59;10.15;;;8.65;;
31438;SDS011;18062;48.872;9.220;2024-03-08T14:28:25;12.80;;;9.93;;
31438;SDS011;18062;48.872;9.220;2024-03-08T14:30:54;12.20;;;9.68;;
31438;SDS011;18062;48.872;9.220;2024-03-08T14:33:20;10.35;;;7.97;;
31438;SDS011;18062;48.872;9.220;2024-03-08T14:35:46;9.57;;;7.95;;
31438;SDS011;18062;48.872;9.220;2024-03-08T14:38:14;11.57;;;8.95;;
31438;SDS011;18062;48.872;9.220;2024-03-08T14:40:42;14.15;;;11.07;;
31438;SDS011;18062;48.872;9.220;2024-03-08T14:43:12;12.15;;;10.40;;
31438;SDS011;18062;48.872;9.220;2024-03-08T14:45:41;12.48;;;10.27;;
31438;SDS011;18062;48.872;9.220;2024-03-08T14:48:07;12.05;;;9.75;;